createdAt,value
2022-10-13T00:07:50.044Z,6.63
2022-10-13T00:17:52.585Z,7.00
2022-10-13T00:27:54.864Z,6.30
2022-10-13T00:37:57.045Z,8.43
2022-10-13T00:48:02.092Z,7.37
2022-10-13T00:58:08.286Z,6.87
2022-10-13T01:08:12.504Z,8.87
2022-10-13T01:18:46.553Z,8.10
2022-10-13T01:29:26.452Z,8.70
2022-10-13T01:39:54.480Z,8.03
2022-10-13T01:49:58.288Z,8.13
2022-10-13T02:00:03.012Z,8.20
2022-10-13T02:20:32.257Z,7.80
2022-10-13T02:30:35.660Z,7.72
2022-10-13T02:40:38.216Z,8.77
2022-10-13T02:50:40.377Z,8.13
2022-10-13T03:00:42.582Z,8.50
2022-10-13T03:10:44.887Z,7.62
2022-10-13T03:20:56.374Z,7.47
2022-10-13T03:31:07.374Z,7.12
2022-10-13T03:41:15.910Z,7.10
2022-10-13T03:51:20.923Z,6.83
2022-10-13T04:01:29.004Z,6.80
2022-10-13T04:11:31.454Z,7.27
2022-10-13T04:21:35.704Z,6.63
2022-10-13T04:31:39.729Z,7.07
2022-10-13T04:41:41.988Z,7.40
2022-10-13T04:51:44.458Z,6.83
2022-10-13T05:01:46.737Z,6.97
2022-10-13T05:11:49.054Z,6.77
2022-10-13T05:21:51.321Z,7.57
2022-10-13T05:31:53.725Z,7.80
2022-10-13T05:41:56.461Z,7.03
2022-10-13T05:52:06.934Z,6.73
2022-10-13T06:02:12.706Z,6.70
2022-10-13T06:12:15.329Z,6.90
2022-10-13T06:22:18.259Z,6.33
2022-10-13T06:32:22.061Z,7.70
2022-10-13T06:42:25.142Z,6.93
2022-10-13T06:52:27.467Z,6.47
2022-10-13T07:02:30.135Z,6.83
2022-10-13T07:12:32.990Z,6.33
2022-10-13T07:22:35.677Z,6.60
2022-10-13T07:32:39.745Z,5.87
2022-10-13T07:42:42.853Z,4.77
2022-10-13T07:52:46.423Z,5.33
2022-10-13T08:02:52.143Z,5.50
2022-10-13T08:12:55.244Z,5.72
2022-10-13T08:22:58.149Z,6.10
2022-10-13T08:33:00.829Z,6.35
2022-10-13T08:43:09.970Z,6.87
2022-10-13T08:53:33.960Z,6.50
2022-10-13T09:04:12.438Z,6.53
2022-10-13T09:14:28.447Z,6.57
2022-10-13T09:24:31.263Z,6.87
2022-10-13T09:34:34.913Z,6.10
2022-10-13T09:44:37.717Z,5.47
2022-10-13T09:54:41.782Z,6.12
2022-10-13T10:04:46.833Z,5.47
2022-10-13T10:14:50.956Z,7.25
2022-10-13T10:35:55.264Z,5.78
2022-10-13T10:46:02.661Z,5.55
2022-10-13T10:56:36.294Z,7.28
2022-10-13T11:06:40.885Z,8.45
2022-10-13T11:17:10.115Z,6.47
2022-10-13T11:27:15.780Z,5.35
2022-10-13T11:37:19.255Z,4.82
2022-10-13T11:47:40.258Z,4.90
2022-10-13T11:57:43.609Z,4.32
2022-10-13T12:07:48.088Z,3.93
2022-10-13T12:17:50.578Z,3.45
2022-10-13T12:27:59.449Z,3.42
2022-10-13T12:38:08.321Z,3.17
2022-10-13T12:48:31.230Z,2.97
2022-10-13T12:58:35.974Z,4.07
2022-10-13T13:08:39.144Z,3.08
2022-10-13T13:18:46.523Z,3.70
2022-10-13T13:28:54.761Z,3.47
2022-10-13T13:38:57.530Z,3.60
2022-10-13T13:49:00.718Z,3.00
2022-10-13T13:59:03.040Z,2.80
2022-10-13T14:09:07.537Z,3.33
2022-10-13T14:19:11.095Z,2.97
2022-10-13T14:29:14.231Z,3.22
2022-10-13T14:39:18.062Z,3.30
2022-10-13T14:59:23.309Z,4.45
2022-10-13T15:09:33.638Z,3.87
2022-10-13T15:19:48.379Z,3.90
2022-10-13T15:29:51.667Z,5.00
2022-10-13T15:39:57.608Z,4.68
2022-10-13T15:50:00.399Z,4.12
2022-10-13T16:00:03.186Z,4.03
2022-10-13T16:10:06.473Z,3.58
2022-10-13T16:20:09.729Z,3.30
2022-10-13T16:30:12.530Z,0.00
2022-10-13T16:40:16.076Z,3.17
2022-10-13T16:50:20.491Z,3.60
2022-10-13T17:00:23.920Z,3.20
2022-10-13T17:10:26.584Z,3.62
2022-10-13T17:20:29.053Z,3.55
2022-10-13T17:30:32.690Z,3.25
2022-10-13T17:40:36.352Z,3.03
2022-10-13T17:50:38.878Z,2.90
2022-10-13T18:01:11.383Z,3.62
2022-10-13T18:11:09.276Z,3.45
2022-10-13T18:21:14.716Z,3.65
2022-10-13T18:31:28.728Z,3.42
2022-10-13T18:41:32.621Z,3.27
2022-10-13T18:51:36.522Z,2.77
2022-10-13T19:01:39.569Z,3.80
2022-10-13T19:11:42.616Z,3.25
2022-10-13T19:21:45.171Z,3.78
2022-10-13T19:31:47.611Z,3.42
2022-10-13T19:41:52.082Z,3.95
2022-10-13T19:51:55.177Z,3.50
2022-10-13T20:01:57.802Z,4.00
2022-10-13T20:12:00.233Z,4.15
2022-10-13T20:22:02.634Z,4.00
2022-10-13T20:32:05.139Z,4.28
2022-10-13T20:42:07.754Z,4.18
2022-10-13T20:52:10.519Z,4.00
2022-10-13T21:02:14.329Z,3.65
2022-10-13T21:12:17.077Z,3.80
2022-10-13T21:22:19.537Z,3.85
2022-10-13T21:32:21.980Z,4.85
2022-10-13T21:42:24.346Z,5.62
2022-10-13T21:52:28.054Z,6.25
2022-10-13T22:02:30.580Z,6.20
2022-10-13T22:12:33.162Z,5.40
2022-10-13T22:22:35.773Z,5.62
2022-10-13T22:32:38.162Z,5.68
2022-10-13T22:42:40.499Z,5.78
2022-10-13T22:52:42.678Z,5.82
2022-10-13T23:02:44.980Z,5.72
2022-10-13T23:12:47.487Z,6.07
2022-10-13T23:22:49.825Z,6.57
2022-10-13T23:32:52.268Z,6.43
2022-10-13T23:42:54.501Z,5.75
2022-10-13T23:52:57.138Z,6.22
